createdAt,value
2022-10-23T00:02:19.642Z,100.00
2022-10-23T00:06:21.472Z,100.00
2022-10-23T00:10:25.202Z,100.00
2022-10-23T00:14:26.889Z,100.00
2022-10-23T00:18:28.524Z,100.00
2022-10-23T00:22:31.914Z,100.00
2022-10-23T00:26:33.587Z,100.00
2022-10-23T00:30:35.293Z,100.00
2022-10-23T00:34:39.269Z,100.00
2022-10-23T00:38:42.975Z,100.00
2022-10-23T00:42:44.801Z,100.00
2022-10-23T00:46:46.824Z,100.00
2022-10-23T00:50:49.659Z,100.00
2022-10-23T00:54:51.324Z,100.00
2022-10-23T00:58:53.018Z,100.00
2022-10-23T01:02:56.525Z,100.00
2022-10-23T01:07:12.293Z,100.00
2022-10-23T01:11:24.944Z,100.00
2022-10-23T01:15:34.349Z,100.00
2022-10-23T01:19:56.028Z,100.00
2022-10-23T01:24:09.266Z,100.00
2022-10-23T01:28:17.287Z,100.00
2022-10-23T01:32:32.106Z,100.00
2022-10-23T01:36:37.286Z,100.00
2022-10-23T01:40:55.640Z,100.00
2022-10-23T01:45:05.616Z,100.00
2022-10-23T01:49:15.306Z,100.00
2022-10-23T01:53:19.322Z,100.00
2022-10-23T01:57:22.869Z,100.00
2022-10-23T02:01:27.849Z,100.00
2022-10-23T02:05:31.794Z,100.00
2022-10-23T02:09:35.442Z,100.00
2022-10-23T02:14:14.877Z,100.00
2022-10-23T02:18:31.506Z,100.00
2022-10-23T02:22:48.829Z,100.00
2022-10-23T02:26:56.140Z,100.00
2022-10-23T02:30:59.655Z,100.00
2022-10-23T02:35:02.767Z,100.00
2022-10-23T02:39:04.972Z,100.00
2022-10-23T02:43:24.896Z,100.00
2022-10-23T02:47:52.419Z,100.00
2022-10-23T02:52:10.666Z,100.00
2022-10-23T02:56:33.455Z,100.00
2022-10-23T03:00:42.704Z,100.00
2022-10-23T03:04:47.991Z,100.00
2022-10-23T03:08:53.927Z,100.00
2022-10-23T03:12:55.546Z,100.00
2022-10-23T03:16:57.503Z,100.00
2022-10-23T03:21:00.406Z,100.00
2022-10-23T03:25:02.073Z,100.00
2022-10-23T03:29:05.585Z,100.00
2022-10-23T03:33:10.926Z,100.00
2022-10-23T03:37:12.567Z,100.00
2022-10-23T03:41:14.169Z,100.00
2022-10-23T03:45:15.828Z,100.00
2022-10-23T03:49:17.442Z,100.00
2022-10-23T03:53:19.316Z,100.00
2022-10-23T03:57:20.950Z,100.00
2022-10-23T04:01:26.453Z,100.00
2022-10-23T04:05:29.369Z,100.00
2022-10-23T04:09:33.486Z,100.00
2022-10-23T04:13:35.242Z,100.00
2022-10-23T04:17:36.878Z,100.00
2022-10-23T04:21:39.439Z,100.00
2022-10-23T04:25:41.170Z,100.00
2022-10-23T04:29:43.498Z,100.00
2022-10-23T04:33:45.723Z,100.00
2022-10-23T04:38:00.956Z,100.00
2022-10-23T04:42:04.217Z,100.00
2022-10-23T04:46:06.134Z,100.00
2022-10-23T04:50:08.685Z,100.00
2022-10-23T04:54:36.297Z,100.00
2022-10-23T05:03:08.530Z,100.00
2022-10-23T05:07:14.381Z,100.00
2022-10-23T05:11:27.350Z,100.00
2022-10-23T05:15:29.579Z,100.00
2022-10-23T05:19:36.725Z,100.00
2022-10-23T05:23:42.100Z,100.00
2022-10-23T05:27:44.195Z,100.00
2022-10-23T05:31:53.813Z,100.00
2022-10-23T05:35:56.361Z,100.00
2022-10-23T05:39:58.433Z,100.00
2022-10-23T05:44:00.811Z,100.00
2022-10-23T05:48:35.259Z,100.00
2022-10-23T05:52:52.312Z,100.00
2022-10-23T05:57:13.556Z,100.00
2022-10-23T06:01:23.252Z,100.00
2022-10-23T06:05:35.628Z,100.00
2022-10-23T06:09:54.390Z,100.00
2022-10-23T06:18:05.506Z,100.00
2022-10-23T06:22:10.307Z,100.00
2022-10-23T06:26:22.651Z,100.00
2022-10-23T06:30:44.489Z,100.00
2022-10-23T06:34:46.143Z,100.00
2022-10-23T06:38:49.499Z,100.00
2022-10-23T06:42:51.533Z,100.00
2022-10-23T06:47:05.916Z,100.00
2022-10-23T06:51:33.247Z,100.00
2022-10-23T06:55:34.906Z,100.00
2022-10-23T06:59:37.673Z,100.00
2022-10-23T07:03:41.048Z,100.00
2022-10-23T07:07:44.193Z,100.00
2022-10-23T07:11:48.900Z,100.00
2022-10-23T07:15:51.150Z,100.00
2022-10-23T07:19:57.712Z,100.00
2022-10-23T07:23:59.602Z,100.00
2022-10-23T07:28:01.540Z,100.00
2022-10-23T07:32:05.787Z,100.00
2022-10-23T07:36:31.239Z,100.00
2022-10-23T07:40:32.983Z,100.00
2022-10-23T07:44:34.811Z,100.00
2022-10-23T07:48:38.041Z,100.00
2022-10-23T07:52:40.050Z,100.00
2022-10-23T07:56:47.039Z,100.00
2022-10-23T08:01:02.893Z,100.00
2022-10-23T08:05:10.209Z,100.00
2022-10-23T08:09:24.518Z,100.00
2022-10-23T08:13:26.195Z,100.00
2022-10-23T08:17:34.478Z,100.00
2022-10-23T08:21:57.729Z,100.00
2022-10-23T08:26:01.316Z,100.00
2022-10-23T08:30:06.287Z,100.00
2022-10-23T08:34:07.951Z,100.00
2022-10-23T08:38:10.540Z,100.00
2022-10-23T08:42:23.550Z,100.00
2022-10-23T08:46:31.720Z,100.00
2022-10-23T08:50:57.556Z,100.00
2022-10-23T08:55:13.934Z,100.00
2022-10-23T08:59:32.954Z,100.00
2022-10-23T09:03:34.560Z,100.00
2022-10-23T09:08:13.525Z,100.00
2022-10-23T09:12:17.954Z,100.00
2022-10-23T09:16:52.392Z,100.00
2022-10-23T09:20:54.219Z,100.00
2022-10-23T09:24:56.136Z,100.00
2022-10-23T09:29:13.961Z,100.00
2022-10-23T09:33:27.078Z,100.00
2022-10-23T09:37:31.590Z,100.00
2022-10-23T09:41:39.041Z,100.00
2022-10-23T09:45:42.602Z,100.00
2022-10-23T09:49:51.049Z,100.00
2022-10-23T09:53:55.471Z,100.00
2022-10-23T09:57:57.274Z,100.00
2022-10-23T10:02:04.773Z,100.00
2022-10-23T10:06:28.695Z,100.00
2022-10-23T10:10:37.701Z,100.00
2022-10-23T10:15:16.971Z,100.00
2022-10-23T10:19:24.468Z,100.00
2022-10-23T10:23:37.939Z,100.00
2022-10-23T10:27:55.660Z,100.00
2022-10-23T10:32:25.191Z,100.00
2022-10-23T10:36:50.809Z,100.00
2022-10-23T10:41:21.315Z,100.00
2022-10-23T10:45:33.097Z,100.00
2022-10-23T10:49:37.579Z,100.00
2022-10-23T10:53:58.364Z,100.00
2022-10-23T10:58:06.024Z,100.00
2022-10-23T11:02:13.828Z,100.00
2022-10-23T11:06:20.657Z,100.00
2022-10-23T11:10:22.872Z,100.00
2022-10-23T11:14:27.556Z,100.00
2022-10-23T11:18:31.699Z,100.00
2022-10-23T11:22:37.935Z,100.00
2022-10-23T11:27:11.940Z,100.00
2022-10-23T11:31:22.473Z,100.00
2022-10-23T11:35:45.899Z,100.00
2022-10-23T11:40:25.231Z,100.00
2022-10-23T11:44:41.936Z,100.00
2022-10-23T11:48:44.511Z,100.00
2022-10-23T11:53:19.926Z,98.14
2022-10-23T11:57:22.611Z,98.42
2022-10-23T12:01:41.553Z,98.87
2022-10-23T12:05:45.679Z,99.33
2022-10-23T12:09:55.588Z,97.10
2022-10-23T12:13:57.303Z,95.56
2022-10-23T12:18:15.653Z,91.49
2022-10-23T12:22:17.384Z,89.65
2022-10-23T12:26:43.077Z,83.90
2022-10-23T12:30:56.651Z,83.04
2022-10-23T12:35:43.208Z,84.39
2022-10-23T12:39:52.637Z,79.68
2022-10-23T12:44:02.523Z,74.49
2022-10-23T12:48:04.475Z,74.67
2022-10-23T12:52:16.515Z,75.59
2022-10-23T12:56:18.659Z,77.53
2022-10-23T13:00:23.208Z,78.52
2022-10-23T13:04:31.357Z,79.12
2022-10-23T13:08:45.967Z,78.16
2022-10-23T13:13:08.468Z,79.32
2022-10-23T13:17:12.148Z,80.32
2022-10-23T13:21:18.542Z,80.03
2022-10-23T13:25:25.875Z,80.62
2022-10-23T13:29:31.422Z,81.17
2022-10-23T13:33:36.897Z,81.27
2022-10-23T13:37:38.610Z,80.68
2022-10-23T13:41:46.039Z,80.92
2022-10-23T13:45:47.594Z,80.50
2022-10-23T13:49:49.187Z,81.62
2022-10-23T13:53:51.381Z,82.64
2022-10-23T13:57:52.964Z,82.86
2022-10-23T14:01:56.377Z,83.48
2022-10-23T14:05:58.089Z,84.92
2022-10-23T14:09:59.728Z,86.84
2022-10-23T14:14:01.396Z,87.76
2022-10-23T14:18:05.978Z,88.85
2022-10-23T14:22:09.851Z,89.96
2022-10-23T14:26:14.514Z,91.08
2022-10-23T14:30:16.238Z,92.06
2022-10-23T14:34:17.922Z,93.69
2022-10-23T14:38:19.558Z,94.67
2022-10-23T14:42:21.462Z,95.25
2022-10-23T14:46:24.915Z,95.72
2022-10-23T14:50:27.125Z,96.81
2022-10-23T14:54:29.460Z,97.46
2022-10-23T14:58:31.102Z,99.26
2022-10-23T15:02:33.256Z,100.00
2022-10-23T15:06:35.998Z,100.00
2022-10-23T15:10:37.588Z,100.00
2022-10-23T15:14:39.225Z,100.00
2022-10-23T15:18:40.851Z,100.00
2022-10-23T15:22:42.731Z,100.00
2022-10-23T15:26:45.125Z,100.00
2022-10-23T15:30:46.761Z,100.00
2022-10-23T15:34:49.797Z,100.00
2022-10-23T15:38:51.437Z,100.00
2022-10-23T15:42:53.070Z,100.00
2022-10-23T15:46:57.109Z,100.00
2022-10-23T15:50:59.250Z,100.00
2022-10-23T15:55:00.820Z,100.00
2022-10-23T15:59:02.626Z,100.00
2022-10-23T16:03:04.402Z,100.00
2022-10-23T16:07:07.167Z,100.00
2022-10-23T16:11:19.366Z,100.00
2022-10-23T16:15:20.933Z,100.00
2022-10-23T16:19:22.573Z,100.00
2022-10-23T16:23:24.216Z,100.00
2022-10-23T16:27:25.813Z,100.00
2022-10-23T16:31:28.325Z,100.00
2022-10-23T16:35:31.131Z,100.00
2022-10-23T16:39:41.837Z,100.00
2022-10-23T16:44:01.739Z,100.00
2022-10-23T16:48:26.374Z,100.00
2022-10-23T16:52:28.365Z,100.00
2022-10-23T16:56:31.164Z,100.00
2022-10-23T17:00:35.272Z,100.00
2022-10-23T17:04:37.390Z,100.00
2022-10-23T17:08:40.357Z,100.00
2022-10-23T17:12:42.072Z,100.00
2022-10-23T17:16:49.407Z,100.00
2022-10-23T17:20:58.049Z,100.00
2022-10-23T17:24:59.639Z,100.00
2022-10-23T17:29:03.795Z,100.00
2022-10-23T17:33:05.369Z,100.00
2022-10-23T17:37:07.992Z,100.00
2022-10-23T17:41:10.986Z,100.00
2022-10-23T17:45:12.562Z,100.00
2022-10-23T17:49:14.178Z,100.00
2022-10-23T17:53:15.778Z,100.00
2022-10-23T17:57:17.424Z,100.00
2022-10-23T18:01:25.095Z,100.00
2022-10-23T18:05:27.061Z,100.00
2022-10-23T18:09:28.773Z,100.00
2022-10-23T18:13:32.223Z,100.00
2022-10-23T18:17:35.031Z,100.00
2022-10-23T18:21:38.039Z,100.00
2022-10-23T18:25:42.746Z,100.00
2022-10-23T18:29:44.860Z,100.00
2022-10-23T18:33:47.245Z,100.00
2022-10-23T18:37:48.852Z,100.00
2022-10-23T18:41:52.892Z,100.00
2022-10-23T18:45:54.421Z,100.00
2022-10-23T18:49:55.962Z,100.00
2022-10-23T18:54:00.665Z,100.00
2022-10-23T18:58:02.352Z,100.00
2022-10-23T19:02:04.191Z,100.00
2022-10-23T19:06:07.484Z,100.00
2022-10-23T19:10:15.816Z,100.00
2022-10-23T19:14:17.410Z,100.00
2022-10-23T19:18:19.091Z,100.00
2022-10-23T19:22:20.830Z,100.00
2022-10-23T19:26:22.417Z,100.00
2022-10-23T19:30:25.394Z,100.00
2022-10-23T19:34:26.976Z,100.00
2022-10-23T19:38:28.770Z,100.00
2022-10-23T19:42:30.357Z,100.00
2022-10-23T19:46:32.025Z,100.00
2022-10-23T19:50:33.599Z,100.00
2022-10-23T19:54:35.978Z,100.00
2022-10-23T19:58:38.703Z,100.00
2022-10-23T20:02:41.051Z,100.00
2022-10-23T20:06:42.635Z,100.00
2022-10-23T20:10:46.594Z,100.00
2022-10-23T20:14:48.294Z,100.00
2022-10-23T20:18:50.681Z,100.00
2022-10-23T20:22:55.294Z,100.00
2022-10-23T20:26:57.649Z,100.00
2022-10-23T20:30:59.364Z,100.00
2022-10-23T20:35:00.927Z,100.00
2022-10-23T20:39:06.139Z,100.00
2022-10-23T20:43:07.794Z,100.00
2022-10-23T20:47:09.357Z,100.00
2022-10-23T20:51:15.064Z,100.00
2022-10-23T20:55:16.801Z,100.00
2022-10-23T20:59:21.401Z,100.00
2022-10-23T21:03:23.050Z,100.00
2022-10-23T21:07:26.082Z,100.00
2022-10-23T21:11:29.575Z,100.00
2022-10-23T21:15:31.174Z,100.00
2022-10-23T21:19:32.882Z,100.00
2022-10-23T21:23:35.443Z,100.00
2022-10-23T21:27:37.132Z,100.00
2022-10-23T21:31:38.827Z,100.00
2022-10-23T21:35:47.502Z,100.00
2022-10-23T21:39:59.819Z,100.00
2022-10-23T21:44:05.059Z,100.00
2022-10-23T21:48:06.718Z,100.00
2022-10-23T21:52:08.388Z,100.00
2022-10-23T21:56:22.841Z,100.00
2022-10-23T22:00:24.482Z,100.00
2022-10-23T22:04:26.190Z,100.00
2022-10-23T22:08:27.831Z,100.00
2022-10-23T22:12:29.502Z,100.00
2022-10-23T22:16:31.552Z,100.00
2022-10-23T22:20:33.184Z,100.00
2022-10-23T22:24:36.050Z,100.00
2022-10-23T22:28:37.608Z,100.00
2022-10-23T22:32:39.184Z,100.00
2022-10-23T22:36:41.277Z,100.00
2022-10-23T22:40:46.547Z,100.00
2022-10-23T22:44:48.381Z,100.00
2022-10-23T22:48:50.286Z,100.00
2022-10-23T22:52:52.394Z,100.00
2022-10-23T22:56:53.988Z,100.00
2022-10-23T23:01:06.733Z,100.00
2022-10-23T23:05:12.469Z,100.00
2022-10-23T23:09:17.929Z,100.00
2022-10-23T23:13:20.021Z,100.00
2022-10-23T23:17:21.854Z,100.00
2022-10-23T23:21:23.570Z,100.00
2022-10-23T23:25:25.437Z,100.00
2022-10-23T23:29:28.437Z,100.00
2022-10-23T23:33:30.132Z,100.00
2022-10-23T23:37:31.753Z,100.00
2022-10-23T23:41:33.472Z,100.00
2022-10-23T23:45:35.075Z,100.00
2022-10-23T23:49:36.660Z,100.00
2022-10-23T23:53:38.323Z,100.00
2022-10-23T23:57:39.972Z,100.00
